aviador You're here:

KHKY Decoded Metar

HICKORY in NC, USA
Report Time2017-07-23 05:53:00
UTC Time2017-07-23 06:52:54
Flight Rules vfr VFR
Wind300° at 05 kt
W.Decomp.*RWY 01: 2.2 kt HW 4.5 kt LCW
RWY 24: 2.0 kt HW 4.6 kt RCW
W.Rank300° ranks 4
Current wind is below 300° avg. (5.8)
Visibility9999 m
Phenomena:N/A
Clouds:N/A
Expected CloudBase > 800 ft AGL from Temp-Dew spread
CeilingNone
Temp24°C (ISA +11)
Dew Point22°C (89% RH)
QNH1013 hPa
Density Alt2,825 ft
Elevation1,161 ft
Report Wrong Elevation
Raw Report
METAR KHKY 230553Z AUTO 30005KT 10SM CLR 24/22 A2992 RMK AO2 SLP106
T02440222 10278 20239 58008=

Extra information for KHKY:More info

Metar Taf Metar & Taf Last 4 Metars F.Rules Stats Wind Profile Meteogram Temp Stats Airport Information Weather charts Add Link Nearby VenuesMetar ALERT Operation Metar Decoded Social comments

AIRNAV info for KHKY